createdAt,value
2018-05-02T00:01:44.851Z,5.10
2018-05-02T00:04:12.988Z,5.23
2018-05-02T00:06:41.120Z,5.40
2018-05-02T00:09:09.229Z,5.40
2018-05-02T00:11:37.345Z,5.03
2018-05-02T00:14:05.477Z,5.30
2018-05-02T00:16:33.590Z,5.10
2018-05-02T00:19:01.723Z,4.97
2018-05-02T00:21:29.827Z,5.50
2018-05-02T00:23:57.955Z,6.00
2018-05-02T00:26:26.066Z,5.30
2018-05-02T00:28:54.196Z,5.03
2018-05-02T00:31:22.308Z,5.27
2018-05-02T00:33:50.410Z,5.07
2018-05-02T00:36:18.722Z,5.37
2018-05-02T00:38:46.859Z,5.20
2018-05-02T00:41:14.983Z,5.87
2018-05-02T00:43:43.123Z,5.43
2018-05-02T00:46:11.238Z,5.70
2018-05-02T00:48:51.245Z,5.60
2018-05-02T00:51:19.308Z,5.10
2018-05-02T00:53:47.421Z,5.10
2018-05-02T00:56:15.558Z,5.57
2018-05-02T00:58:43.723Z,5.00
2018-05-02T01:01:11.819Z,5.63
2018-05-02T01:03:40.114Z,5.70
2018-05-02T01:06:08.247Z,6.37
2018-05-02T01:08:36.361Z,5.50
2018-05-02T01:11:04.489Z,5.73
2018-05-02T01:13:32.609Z,5.43
2018-05-02T01:16:00.730Z,5.93
2018-05-02T01:18:29.141Z,5.63
2018-05-02T01:20:57.272Z,5.60
2018-05-02T01:23:25.377Z,5.53
2018-05-02T01:25:53.489Z,5.80
2018-05-02T01:28:21.609Z,5.63
2018-05-02T01:30:49.720Z,5.70
2018-05-02T01:33:17.853Z,5.50
2018-05-02T01:35:45.977Z,5.93
2018-05-02T01:38:14.081Z,5.30
2018-05-02T01:40:42.425Z,5.50
2018-05-02T01:43:10.547Z,5.50
2018-05-02T01:45:38.674Z,5.73
2018-05-02T01:48:06.805Z,6.17
2018-05-02T01:50:34.907Z,5.50
2018-05-02T01:53:03.017Z,5.93
2018-05-02T01:55:31.171Z,5.77
2018-05-02T01:57:59.285Z,5.50
2018-05-02T02:00:27.383Z,5.87
2018-05-02T02:02:55.524Z,5.97
2018-05-02T02:05:23.648Z,6.20
2018-05-02T02:07:51.767Z,6.33
2018-05-02T02:10:19.880Z,6.00
2018-05-02T02:12:48.001Z,6.13
2018-05-02T02:15:16.122Z,5.90
2018-05-02T02:17:45.350Z,6.37
2018-05-02T02:20:13.462Z,5.87
2018-05-02T02:22:41.596Z,6.40
2018-05-02T02:25:09.877Z,6.07
2018-05-02T02:27:38.003Z,6.53
2018-05-02T02:30:06.111Z,6.30
2018-05-02T02:32:34.226Z,6.60
2018-05-02T02:35:02.341Z,6.27
2018-05-02T02:37:30.431Z,6.90
2018-05-02T02:39:58.567Z,6.30
2018-05-02T02:42:26.684Z,6.40
2018-05-02T02:44:54.776Z,6.47
2018-05-02T02:47:22.980Z,5.97
2018-05-02T02:49:51.023Z,6.10
2018-05-02T02:52:19.118Z,6.53
2018-05-02T02:54:47.264Z,6.50
2018-05-02T02:57:15.373Z,6.13
2018-05-02T02:59:43.497Z,6.97
2018-05-02T03:02:11.636Z,6.47
2018-05-02T03:04:39.754Z,6.10
2018-05-02T03:07:07.868Z,6.47
2018-05-02T03:09:35.989Z,6.57
2018-05-02T03:12:04.104Z,7.13
2018-05-02T03:14:32.237Z,6.83
2018-05-02T03:17:00.483Z,6.23
2018-05-02T03:19:28.587Z,6.37
2018-05-02T03:21:56.706Z,6.33
2018-05-02T03:24:24.843Z,6.30
2018-05-02T03:26:52.970Z,6.50
2018-05-02T03:29:21.463Z,6.07
2018-05-02T03:31:49.591Z,6.47
2018-05-02T03:34:17.694Z,6.60
2018-05-02T03:36:45.831Z,6.13
2018-05-02T03:39:14.021Z,6.40
2018-05-02T03:41:42.130Z,6.50
2018-05-02T03:44:10.236Z,6.63
2018-05-02T03:46:38.342Z,6.23
2018-05-02T03:49:06.677Z,6.43
2018-05-02T03:51:34.779Z,6.67
2018-05-02T03:54:02.904Z,6.53
2018-05-02T03:56:31.010Z,6.73
2018-05-02T03:58:59.112Z,7.07
2018-05-02T04:01:38.887Z,6.90
2018-05-02T04:04:18.781Z,6.80
2018-05-02T04:07:15.073Z,6.40
2018-05-02T04:09:43.200Z,6.37
2018-05-02T04:12:22.166Z,6.67
2018-05-02T04:14:50.293Z,7.13
2018-05-02T04:17:18.405Z,7.20
2018-05-02T04:19:46.518Z,6.63
2018-05-02T04:22:14.628Z,6.90
2018-05-02T04:24:42.803Z,6.77
2018-05-02T04:27:11.005Z,7.17
2018-05-02T04:29:39.149Z,6.87
2018-05-02T04:32:07.257Z,6.43
2018-05-02T04:34:35.409Z,6.63
2018-05-02T04:37:03.543Z,6.90
2018-05-02T04:39:31.658Z,7.60
2018-05-02T04:41:59.781Z,7.13
2018-05-02T04:44:27.904Z,6.53
2018-05-02T04:46:56.024Z,7.17
2018-05-02T04:49:24.168Z,7.07
2018-05-02T04:51:52.259Z,7.40
2018-05-02T04:54:20.403Z,6.43
2018-05-02T04:56:48.524Z,7.20
2018-05-02T04:59:16.700Z,7.23
2018-05-02T05:01:44.821Z,7.00
2018-05-02T05:04:12.963Z,7.07
2018-05-02T05:06:41.097Z,6.63
2018-05-02T05:09:09.196Z,7.20
2018-05-02T05:11:37.325Z,29.17
2018-05-02T05:14:05.423Z,7.20
2018-05-02T05:16:33.532Z,6.70
2018-05-02T05:19:01.672Z,6.50
2018-05-02T05:21:29.827Z,7.40
2018-05-02T05:23:57.933Z,7.10
2018-05-02T05:26:26.046Z,6.67
2018-05-02T05:28:54.164Z,6.30
2018-05-02T05:31:22.277Z,6.33
2018-05-02T05:33:50.429Z,7.00
2018-05-02T05:36:18.526Z,7.27
2018-05-02T05:38:46.646Z,6.50
2018-05-02T05:41:14.781Z,6.63
2018-05-02T05:43:42.882Z,7.63
2018-05-02T05:46:11.006Z,6.77
2018-05-02T05:48:39.121Z,6.87
2018-05-02T05:51:07.223Z,6.27
2018-05-02T05:53:35.355Z,6.97
2018-05-02T05:56:03.500Z,7.30
2018-05-02T05:58:31.603Z,6.77
2018-05-02T06:00:59.711Z,7.20
2018-05-02T06:03:27.849Z,7.13
2018-05-02T06:05:55.961Z,6.67
2018-05-02T06:08:24.081Z,7.27
2018-05-02T06:10:52.190Z,7.17
2018-05-02T06:13:20.325Z,6.87
2018-05-02T06:15:48.423Z,7.33
2018-05-02T06:18:16.565Z,7.27
2018-05-02T06:20:44.691Z,6.50
2018-05-02T06:23:13.658Z,7.40
2018-05-02T06:25:41.780Z,7.30
2018-05-02T06:28:09.906Z,7.53
2018-05-02T06:30:38.011Z,6.20
2018-05-02T06:33:06.161Z,6.93
2018-05-02T06:35:34.259Z,6.60
2018-05-02T06:38:02.382Z,6.43
2018-05-02T06:40:30.509Z,6.13
2018-05-02T06:42:58.608Z,6.70
2018-05-02T06:45:26.728Z,6.77
2018-05-02T06:47:55.008Z,5.97
2018-05-02T06:50:23.211Z,6.57
2018-05-02T06:52:51.230Z,6.57
2018-05-02T06:55:19.357Z,6.13
2018-05-02T06:57:47.481Z,6.17
2018-05-02T07:00:16.043Z,5.90
2018-05-02T07:02:44.155Z,6.13
2018-05-02T07:05:12.295Z,6.07
2018-05-02T07:07:40.404Z,5.90
2018-05-02T07:10:08.534Z,5.50
2018-05-02T07:12:36.653Z,5.77
2018-05-02T07:15:04.769Z,4.90
2018-05-02T07:17:32.891Z,5.70
2018-05-02T07:20:01.011Z,5.70
2018-05-02T07:22:29.120Z,5.40
2018-05-02T07:24:57.245Z,5.47
2018-05-02T07:27:25.365Z,5.60
2018-05-02T07:29:53.493Z,5.77
2018-05-02T07:32:21.610Z,5.53
2018-05-02T07:34:49.728Z,5.43
2018-05-02T07:37:17.841Z,5.97
2018-05-02T07:39:45.989Z,5.40
2018-05-02T07:42:14.135Z,6.10
2018-05-02T07:44:42.212Z,6.40
2018-05-02T07:47:10.338Z,6.03
2018-05-02T07:49:38.484Z,6.07
2018-05-02T07:52:06.587Z,6.20
2018-05-02T07:54:34.735Z,5.50
2018-05-02T07:57:02.875Z,6.10
2018-05-02T07:59:30.977Z,5.97
2018-05-02T08:01:59.100Z,6.17
2018-05-02T08:04:27.218Z,6.43
2018-05-02T08:06:55.326Z,5.67
2018-05-02T08:09:23.468Z,6.17
2018-05-02T08:11:51.582Z,6.07
2018-05-02T08:14:19.776Z,6.27
2018-05-02T08:16:47.916Z,6.17
2018-05-02T08:19:16.047Z,5.70
2018-05-02T08:21:44.178Z,5.43
2018-05-02T08:24:12.297Z,5.13
2018-05-02T08:26:40.425Z,4.57
2018-05-02T08:29:08.518Z,4.20
2018-05-02T08:31:36.914Z,5.13
2018-05-02T08:34:04.965Z,4.50
2018-05-02T08:36:33.085Z,4.90
2018-05-02T08:39:01.237Z,5.07
2018-05-02T08:41:29.360Z,5.00
2018-05-02T08:43:57.488Z,4.77
2018-05-02T08:46:25.613Z,4.33
2018-05-02T08:48:53.729Z,4.17
2018-05-02T08:51:22.051Z,4.33
2018-05-02T08:53:50.189Z,4.33
2018-05-02T08:56:18.301Z,3.37
2018-05-02T08:58:46.411Z,4.20
2018-05-02T09:01:14.522Z,3.37
2018-05-02T09:03:42.715Z,3.37
2018-05-02T09:06:10.761Z,3.50
2018-05-02T09:08:38.896Z,3.70
2018-05-02T09:11:07.017Z,3.53
2018-05-02T09:13:35.145Z,3.63
2018-05-02T09:16:03.428Z,3.80
2018-05-02T09:18:31.544Z,3.07
2018-05-02T09:20:59.682Z,2.90
2018-05-02T09:23:27.809Z,3.13
2018-05-02T09:25:55.978Z,3.67
2018-05-02T09:28:24.282Z,2.80
2018-05-02T09:30:52.431Z,2.80
2018-05-02T09:33:20.531Z,3.00
2018-05-02T09:35:48.636Z,2.57
2018-05-02T09:38:16.760Z,2.03
2018-05-02T09:40:44.881Z,2.23
2018-05-02T09:43:13.000Z,2.00
2018-05-02T09:45:44.447Z,2.40
2018-05-02T09:48:12.572Z,2.57
2018-05-02T09:50:40.684Z,2.13
2018-05-02T09:53:08.818Z,2.70
2018-05-02T09:55:36.933Z,3.37
2018-05-02T09:58:05.072Z,4.70
2018-05-02T10:00:33.198Z,3.10
2018-05-02T10:03:01.317Z,3.40
2018-05-02T10:05:29.431Z,3.67
2018-05-02T10:07:57.548Z,4.10
2018-05-02T10:10:25.685Z,5.40
2018-05-02T10:12:53.800Z,5.90
2018-05-02T10:15:21.956Z,4.90
2018-05-02T10:17:50.056Z,5.20
2018-05-02T10:20:18.182Z,5.40
2018-05-02T10:22:46.323Z,5.00
2018-05-02T10:25:14.428Z,5.33
2018-05-02T10:27:42.558Z,4.53
2018-05-02T10:30:10.680Z,5.07
2018-05-02T10:32:38.792Z,4.57
2018-05-02T10:35:06.914Z,5.27
2018-05-02T10:37:35.057Z,3.80
2018-05-02T10:40:03.176Z,3.20
2018-05-02T10:42:31.296Z,2.90
2018-05-02T10:44:59.440Z,3.47
2018-05-02T10:47:27.554Z,3.83
2018-05-02T10:49:55.657Z,4.13
2018-05-02T10:52:23.792Z,4.20
2018-05-02T10:54:51.916Z,4.00
2018-05-02T10:57:20.024Z,4.33
2018-05-02T10:59:48.135Z,3.83
2018-05-02T11:02:16.239Z,4.33
2018-05-02T11:04:44.347Z,4.53
2018-05-02T11:07:12.482Z,4.10
2018-05-02T11:09:40.605Z,4.50
2018-05-02T11:12:08.738Z,3.90
2018-05-02T11:14:36.845Z,3.70
2018-05-02T11:17:04.946Z,3.60
2018-05-02T11:19:33.062Z,3.70
2018-05-02T11:22:01.230Z,3.20
2018-05-02T11:24:29.327Z,3.17
2018-05-02T11:26:57.439Z,3.47
2018-05-02T11:29:25.584Z,3.23
2018-05-02T11:31:53.693Z,3.37
2018-05-02T11:34:21.817Z,3.70
2018-05-02T11:36:49.930Z,3.40
2018-05-02T11:39:18.177Z,3.00
2018-05-02T11:41:46.309Z,2.53
2018-05-02T11:44:14.415Z,2.83
2018-05-02T11:46:42.521Z,2.30
2018-05-02T11:49:10.642Z,2.70
2018-05-02T11:51:38.788Z,2.40
2018-05-02T11:54:06.906Z,2.50
2018-05-02T11:56:35.007Z,2.53
2018-05-02T11:59:03.188Z,2.50
2018-05-02T12:01:31.319Z,2.10
2018-05-02T12:03:59.433Z,2.30
2018-05-02T12:06:27.575Z,1.83
2018-05-02T12:08:55.674Z,2.50
2018-05-02T12:11:23.840Z,2.40
2018-05-02T12:13:51.967Z,2.10
2018-05-02T12:16:20.091Z,2.27
2018-05-02T12:18:48.219Z,2.13
2018-05-02T12:21:16.346Z,2.13
2018-05-02T12:23:44.468Z,2.10
2018-05-02T12:26:12.570Z,2.30
2018-05-02T12:28:40.722Z,2.20
2018-05-02T12:31:08.829Z,2.30
2018-05-02T12:33:36.974Z,2.10
2018-05-02T12:36:05.091Z,2.20
2018-05-02T12:38:33.191Z,1.87
2018-05-02T12:41:01.299Z,2.30
2018-05-02T12:43:29.428Z,2.07
2018-05-02T12:45:57.524Z,2.30
2018-05-02T12:48:25.664Z,2.00
2018-05-02T12:50:53.778Z,1.97
2018-05-02T12:53:21.901Z,2.47
2018-05-02T12:55:50.005Z,2.20
2018-05-02T12:58:18.123Z,2.70
2018-05-02T13:00:46.257Z,2.60
2018-05-02T13:03:14.365Z,2.70
2018-05-02T13:05:42.513Z,2.60
2018-05-02T13:08:10.627Z,6.77
2018-05-02T13:10:38.811Z,2.50
2018-05-02T13:13:16.630Z,2.70
2018-05-02T13:15:46.488Z,2.67
2018-05-02T13:18:14.612Z,2.57
2018-05-02T13:20:42.739Z,2.60
2018-05-02T13:23:10.843Z,2.90
2018-05-02T13:25:38.965Z,2.80
2018-05-02T13:28:07.083Z,2.57
2018-05-02T13:30:35.202Z,2.87
2018-05-02T13:33:03.402Z,2.67
2018-05-02T13:35:31.423Z,2.73
2018-05-02T13:37:59.531Z,2.60
2018-05-02T13:40:27.634Z,2.40
2018-05-02T13:42:55.747Z,2.73
2018-05-02T13:45:23.893Z,2.23
2018-05-02T13:47:52.006Z,2.37
2018-05-02T13:50:20.147Z,2.50
2018-05-02T13:52:48.283Z,2.50
2018-05-02T13:55:16.550Z,2.23
2018-05-02T13:57:44.725Z,2.60
2018-05-02T14:00:12.844Z,2.90
2018-05-02T14:02:40.953Z,2.67
2018-05-02T14:05:09.070Z,2.10
2018-05-02T14:07:37.197Z,2.60
2018-05-02T14:10:05.321Z,2.40
2018-05-02T14:12:33.452Z,2.10
2018-05-02T14:15:01.589Z,2.73
2018-05-02T14:17:29.701Z,2.40
2018-05-02T14:19:57.844Z,2.33
2018-05-02T14:22:25.961Z,2.10
2018-05-02T14:24:54.058Z,2.80
2018-05-02T14:27:22.205Z,2.00
2018-05-02T14:29:50.309Z,2.57
2018-05-02T14:32:18.408Z,2.33
2018-05-02T14:34:46.545Z,2.30
2018-05-02T14:37:14.660Z,2.50
2018-05-02T14:39:42.796Z,2.43
2018-05-02T14:42:10.929Z,2.60
2018-05-02T14:44:39.157Z,2.60
2018-05-02T14:47:07.288Z,2.47
2018-05-02T14:49:35.436Z,3.00
2018-05-02T14:52:03.530Z,2.77
2018-05-02T14:54:31.678Z,5.37
2018-05-02T14:56:59.790Z,2.70
2018-05-02T14:59:27.901Z,4.03
2018-05-02T15:01:56.021Z,3.23
2018-05-02T15:04:24.136Z,3.10
2018-05-02T15:06:52.264Z,3.30
2018-05-02T15:09:20.424Z,3.23
2018-05-02T15:11:48.722Z,3.10
2018-05-02T15:14:16.838Z,3.17
2018-05-02T15:16:44.936Z,2.83
2018-05-02T15:19:13.212Z,3.10
2018-05-02T15:21:41.328Z,3.20
2018-05-02T15:24:09.432Z,3.87
2018-05-02T15:26:37.573Z,2.93
2018-05-02T15:29:05.686Z,2.70
2018-05-02T15:31:33.786Z,3.20
2018-05-02T15:34:01.938Z,3.20
2018-05-02T15:36:30.076Z,3.30
2018-05-02T15:38:58.170Z,2.50
2018-05-02T15:41:26.318Z,2.60
2018-05-02T15:43:54.442Z,3.03
2018-05-02T15:46:22.556Z,2.60
2018-05-02T15:48:50.705Z,2.37
2018-05-02T15:51:18.835Z,2.33
2018-05-02T15:53:46.931Z,2.50
2018-05-02T15:56:15.140Z,2.30
2018-05-02T15:58:43.185Z,2.03
2018-05-02T16:01:11.305Z,2.40
2018-05-02T16:03:39.433Z,2.90
2018-05-02T16:06:07.549Z,2.10
2018-05-02T16:08:35.670Z,1.97
2018-05-02T16:11:03.779Z,2.67
2018-05-02T16:13:31.890Z,2.00
2018-05-02T16:15:59.992Z,2.37
2018-05-02T16:18:28.103Z,2.23
2018-05-02T16:20:56.302Z,2.07
2018-05-02T16:23:24.440Z,2.30
2018-05-02T16:25:52.551Z,1.80
2018-05-02T16:28:20.669Z,1.73
2018-05-02T16:30:48.793Z,2.13
2018-05-02T16:33:17.005Z,1.90
2018-05-02T16:35:45.035Z,2.20
2018-05-02T16:38:13.168Z,2.10
2018-05-02T16:40:41.300Z,1.90
2018-05-02T16:43:09.409Z,2.10
2018-05-02T16:45:37.525Z,2.20
2018-05-02T16:48:05.657Z,2.20
2018-05-02T16:50:33.773Z,2.43
2018-05-02T16:53:01.896Z,1.70
2018-05-02T16:55:30.009Z,1.83
2018-05-02T16:57:58.152Z,1.90
2018-05-02T17:00:26.245Z,1.80
2018-05-02T17:02:54.383Z,1.83
2018-05-02T17:05:22.522Z,2.57
2018-05-02T17:07:50.621Z,1.70
2018-05-02T17:10:18.882Z,2.10
2018-05-02T17:12:46.881Z,2.00
2018-05-02T17:15:15.001Z,2.03
2018-05-02T17:17:43.151Z,2.40
2018-05-02T17:20:11.271Z,2.00
2018-05-02T17:22:39.363Z,1.83
2018-05-02T17:25:07.508Z,2.27
2018-05-02T17:27:35.621Z,1.60
2018-05-02T17:30:03.796Z,1.97
2018-05-02T17:32:31.874Z,2.00
2018-05-02T17:34:59.976Z,1.30
2018-05-02T17:37:28.093Z,1.70
2018-05-02T17:39:56.251Z,2.00
2018-05-02T17:42:24.347Z,1.60
2018-05-02T17:44:52.458Z,1.83
2018-05-02T17:47:20.811Z,2.00
2018-05-02T17:49:48.929Z,1.70
2018-05-02T17:52:17.074Z,1.80
2018-05-02T17:54:45.212Z,1.80
2018-05-02T17:57:13.330Z,1.67
2018-05-02T17:59:41.428Z,1.50
2018-05-02T18:02:09.551Z,1.70
2018-05-02T18:04:37.681Z,1.73
2018-05-02T18:07:05.828Z,1.93
2018-05-02T18:09:33.939Z,1.73
2018-05-02T18:12:02.072Z,1.80
2018-05-02T18:14:33.131Z,1.50
2018-05-02T18:17:01.318Z,2.07
2018-05-02T18:19:29.452Z,2.00
2018-05-02T18:21:57.569Z,1.73
2018-05-02T18:24:25.734Z,1.93
2018-05-02T18:26:53.839Z,1.70
2018-05-02T18:29:21.966Z,1.67
2018-05-02T18:31:50.114Z,1.70
2018-05-02T18:34:18.211Z,1.57
2018-05-02T18:36:46.318Z,1.70
2018-05-02T18:39:14.655Z,1.73
2018-05-02T18:41:42.762Z,1.73
2018-05-02T18:44:10.885Z,1.67
2018-05-02T18:46:39.232Z,1.40
2018-05-02T18:49:07.366Z,1.67
2018-05-02T18:51:35.473Z,1.37
2018-05-02T18:54:03.689Z,1.50
2018-05-02T18:56:35.537Z,1.57
2018-05-02T18:59:03.642Z,1.77
2018-05-02T19:01:31.799Z,1.70
2018-05-02T19:03:59.913Z,1.57
2018-05-02T19:06:28.010Z,1.70
2018-05-02T19:08:56.131Z,1.70
2018-05-02T19:11:24.249Z,1.90
2018-05-02T19:13:57.920Z,1.60
2018-05-02T19:16:26.048Z,1.53
2018-05-02T19:18:59.954Z,1.60
2018-05-02T19:21:28.066Z,1.50
2018-05-02T19:23:56.200Z,1.70
2018-05-02T19:26:29.889Z,1.80
2018-05-02T19:28:58.036Z,1.70
2018-05-02T19:31:33.875Z,1.67
2018-05-02T19:34:02.008Z,1.60
2018-05-02T19:36:30.226Z,1.97
2018-05-02T19:38:58.379Z,1.90
2018-05-02T19:41:32.136Z,2.17
2018-05-02T19:44:04.841Z,1.80
2018-05-02T19:46:32.983Z,1.90
2018-05-02T19:49:01.088Z,2.33
2018-05-02T19:51:34.881Z,1.60
2018-05-02T19:54:02.974Z,1.80
2018-05-02T19:56:31.092Z,1.93
2018-05-02T19:58:59.232Z,1.80
2018-05-02T20:01:32.889Z,1.80
2018-05-02T20:04:01.033Z,1.93
2018-05-02T20:06:29.169Z,2.43
2018-05-02T20:09:06.039Z,2.23
2018-05-02T20:11:39.719Z,2.03
2018-05-02T20:14:07.908Z,1.80
2018-05-02T20:16:36.025Z,1.60
2018-05-02T20:19:04.207Z,1.80
2018-05-02T20:21:32.283Z,2.10
2018-05-02T20:24:00.397Z,2.17
2018-05-02T20:26:28.513Z,2.27
2018-05-02T20:28:56.648Z,2.63
2018-05-02T20:31:24.768Z,2.17
2018-05-02T20:33:52.864Z,2.30
2018-05-02T20:36:21.017Z,2.53
2018-05-02T20:38:49.118Z,2.30
2018-05-02T20:41:17.241Z,2.07
2018-05-02T20:43:45.481Z,2.13
2018-05-02T20:46:13.607Z,2.00
2018-05-02T20:48:41.746Z,2.40
2018-05-02T20:51:09.881Z,2.80
2018-05-02T20:53:38.001Z,2.70
2018-05-02T20:56:06.131Z,3.33
2018-05-02T20:58:34.250Z,2.93
2018-05-02T21:01:02.385Z,2.90
2018-05-02T21:03:30.481Z,2.40
2018-05-02T21:05:58.599Z,2.40
2018-05-02T21:08:26.725Z,2.50
2018-05-02T21:10:54.841Z,2.10
2018-05-02T21:13:22.985Z,2.30
2018-05-02T21:15:51.088Z,2.27
2018-05-02T21:18:19.271Z,2.50
2018-05-02T21:20:47.385Z,2.30
2018-05-02T21:23:15.524Z,2.57
2018-05-02T21:25:43.665Z,2.43
2018-05-02T21:28:11.796Z,2.33
2018-05-02T21:30:39.908Z,2.50
2018-05-02T21:33:08.039Z,2.13
2018-05-02T21:35:36.174Z,2.03
2018-05-02T21:38:04.278Z,2.43
2018-05-02T21:40:32.453Z,2.40
2018-05-02T21:43:00.602Z,2.60
2018-05-02T21:45:28.890Z,2.53
2018-05-02T21:47:57.300Z,2.47
2018-05-02T21:50:25.729Z,2.93
2018-05-02T21:52:53.849Z,2.73
2018-05-02T21:55:21.956Z,2.70
2018-05-02T21:57:50.096Z,3.10
2018-05-02T22:00:18.213Z,2.63
2018-05-02T22:02:46.318Z,2.10
2018-05-02T22:05:14.462Z,2.63
2018-05-02T22:07:42.562Z,2.37
2018-05-02T22:10:10.700Z,2.60
2018-05-02T22:12:38.830Z,3.27
2018-05-02T22:15:06.927Z,2.30
2018-05-02T22:17:35.048Z,2.53
2018-05-02T22:20:03.162Z,2.60
2018-05-02T22:22:31.286Z,2.70
2018-05-02T22:24:59.409Z,2.90
2018-05-02T22:27:27.523Z,2.90
2018-05-02T22:29:55.640Z,2.97
2018-05-02T22:32:23.746Z,2.87
2018-05-02T22:34:51.881Z,2.90
2018-05-02T22:37:20.011Z,2.87
2018-05-02T22:39:48.125Z,2.40
2018-05-02T22:42:16.265Z,2.83
2018-05-02T22:44:44.396Z,3.30
2018-05-02T22:47:12.487Z,3.50
2018-05-02T22:49:40.617Z,2.90
2018-05-02T22:52:08.732Z,3.20
2018-05-02T22:54:36.866Z,2.80
2018-05-02T22:57:05.021Z,2.70
2018-05-02T22:59:33.129Z,2.80
2018-05-02T23:02:01.249Z,3.10
2018-05-02T23:04:29.370Z,3.00
2018-05-02T23:06:57.546Z,2.90
2018-05-02T23:09:25.646Z,3.10
2018-05-02T23:11:53.792Z,3.20
2018-05-02T23:14:21.900Z,2.63
2018-05-02T23:16:50.016Z,3.37
2018-05-02T23:19:18.167Z,2.90
2018-05-02T23:21:46.321Z,3.10
2018-05-02T23:24:14.499Z,3.20
2018-05-02T23:26:42.651Z,2.93
2018-05-02T23:29:10.846Z,2.90
2018-05-02T23:31:38.976Z,3.27
2018-05-02T23:34:07.109Z,3.07
2018-05-02T23:36:35.266Z,2.93
2018-05-02T23:39:03.340Z,2.93
2018-05-02T23:41:31.517Z,3.00
2018-05-02T23:43:59.695Z,3.10
2018-05-02T23:46:27.824Z,3.37
2018-05-02T23:48:55.960Z,3.20
2018-05-02T23:51:24.057Z,2.90
2018-05-02T23:53:52.189Z,3.50
2018-05-02T23:56:20.304Z,4.37
2018-05-02T23:58:48.421Z,4.93
